Time;durP1;ratioP1;P1;durP2;ratioP2;P2;SDS_P1;SDS_P2;PMS_P1;PMS_P2;Temp;Humidity;BMP_temperature;BMP_pressure;BME280_temperature;BME280_humidity;BME280_pressure;Samples;Min_cycle;Max_cycle;Signal;HPM_P1;HPM_P2
2021/07/29 00:00:19;;;;;;;11.55;4.15;;;16.80;75.10;;;;;;5005725;28;20116;-75
2021/07/29 00:02:45;;;;;;;14.85;4.07;;;16.80;75.10;;;;;;4999947;28;20117;-73
2021/07/29 00:05:11;;;;;;;12.52;3.97;;;16.80;74.80;;;;;;5006665;28;20461;-71
2021/07/29 00:07:36;;;;;;;14.63;4.05;;;16.80;74.70;;;;;;5013265;28;20396;-72
2021/07/29 00:10:06;;;;;;;9.13;3.28;;;16.80;74.60;;;;;;5009438;28;20033;-72
2021/07/29 00:12:31;;;;;;;12.30;3.30;;;16.80;75.00;;;;;;5028351;28;20383;-72
2021/07/29 00:14:57;;;;;;;13.88;3.90;;;16.70;75.10;;;;;;5032134;28;20526;-72
2021/07/29 00:20:08;;;;;;;16.63;3.72;;;16.70;75.20;;;;;;5028189;28;20072;-72
2021/07/29 00:22:33;;;;;;;11.13;3.22;;;16.70;75.30;;;;;;5010027;28;20038;-75
2021/07/29 00:24:59;;;;;;;11.20;3.08;;;16.60;75.60;;;;;;5016074;28;20041;-72
2021/07/29 00:27:25;;;;;;;10.38;3.33;;;16.60;75.90;;;;;;5034446;28;20043;-74
2021/07/29 00:29:57;;;;;;;10.85;3.38;;;16.60;75.90;;;;;;5034730;28;20041;-75
2021/07/29 00:32:22;;;;;;;14.80;3.63;;;16.60;76.10;;;;;;5030924;28;20030;-72
2021/07/29 00:34:48;;;;;;;10.88;4.05;;;16.50;76.00;;;;;;5028879;28;20083;-72
2021/07/29 00:37:14;;;;;;;13.13;3.83;;;16.60;75.80;;;;;;5029996;28;20382;-72
2021/07/29 00:39:39;;;;;;;13.30;3.72;;;16.60;75.60;;;;;;5031006;28;20038;-74
2021/07/29 00:42:05;;;;;;;14.50;3.15;;;16.60;75.50;;;;;;5027186;28;20132;-72
2021/07/29 00:44:34;;;;;;;14.40;4.18;;;16.60;75.70;;;;;;5027616;28;20120;-75
2021/07/29 00:47:01;;;;;;;9.88;3.50;;;16.50;75.80;;;;;;5027377;28;20068;-75
2021/07/29 00:49:27;;;;;;;13.20;4.47;;;16.50;75.90;;;;;;5030434;28;20120;-77
2021/07/29 00:51:52;;;;;;;12.57;3.65;;;16.40;76.50;;;;;;5029498;28;20124;-72
2021/07/29 00:54:18;;;;;;;11.25;3.97;;;16.40;76.60;;;;;;5026551;28;20120;-73
2021/07/29 00:56:45;;;;;;;16.38;4.20;;;16.40;76.60;;;;;;5025148;28;20044;-74
2021/07/29 00:59:11;;;;;;;14.10;3.70;;;16.30;77.00;;;;;;5026148;28;20044;-74
2021/07/29 01:01:37;;;;;;;15.50;4.13;;;16.30;77.10;;;;;;5024120;28;20029;-72
2021/07/29 01:04:03;;;;;;;8.32;3.60;;;16.20;77.30;;;;;;5033219;28;20507;-72
2021/07/29 01:06:28;;;;;;;10.93;3.58;;;16.20;77.80;;;;;;5026236;28;20465;-72
2021/07/29 01:09:03;;;;;;;14.32;3.75;;;16.10;78.10;;;;;;5024495;28;20046;-72
2021/07/29 01:11:29;;;;;;;10.60;3.63;;;16.10;78.40;;;;;;5029720;28;20072;-72
2021/07/29 01:13:55;;;;;;;13.85;3.88;;;16.20;78.30;;;;;;5019418;28;20507;-73
2021/07/29 01:16:21;;;;;;;14.50;4.55;;;16.30;78.10;;;;;;5008084;28;20038;-72
2021/07/29 01:18:47;;;;;;;17.15;4.25;;;16.20;78.10;;;;;;5028490;28;20025;-74
2021/07/29 01:21:12;;;;;;;9.60;3.22;;;16.30;78.20;;;;;;5028820;28;20103;-74
2021/07/29 01:23:38;;;;;;;11.20;3.60;;;16.20;78.30;;;;;;5027281;28;20037;-72
2021/07/29 01:26:04;;;;;;;12.60;3.50;;;16.20;78.20;;;;;;5022459;28;20464;-74
2021/07/29 01:28:29;;;;;;;13.05;3.97;;;16.20;78.50;;;;;;5029905;28;20086;-72
2021/07/29 01:30:55;;;;;;;11.23;3.65;;;16.20;78.40;;;;;;5030213;28;20057;-73
2021/07/29 01:33:20;;;;;;;11.50;3.10;;;16.10;78.50;;;;;;5027534;28;20038;-73
2021/07/29 01:35:46;;;;;;;15.02;3.70;;;16.10;78.60;;;;;;5030741;28;20504;-72
2021/07/29 01:38:12;;;;;;;12.85;3.55;;;16.10;78.80;;;;;;5027475;28;20092;-78
2021/07/29 01:40:37;;;;;;;16.15;3.90;;;16.00;79.00;;;;;;5026807;28;20034;-74
2021/07/29 01:43:03;;;;;;;12.48;3.40;;;15.90;79.40;;;;;;5023164;28;20041;-73
2021/07/29 01:45:28;;;;;;;13.68;3.90;;;15.90;79.70;;;;;;5032143;28;20093;-73
2021/07/29 01:47:54;;;;;;;13.77;3.63;;;15.80;79.90;;;;;;5030847;28;20088;-72
2021/07/29 01:50:20;;;;;;;12.75;3.97;;;15.70;80.10;;;;;;5025430;28;20500;-73
2021/07/29 01:52:45;;;;;;;15.85;3.60;;;15.70;80.30;;;;;;5029460;28;20387;-72
2021/07/29 01:55:11;;;;;;;14.60;3.78;;;15.70;80.60;;;;;;5018036;28;20477;-73
2021/07/29 01:57:37;;;;;;;10.00;3.38;;;15.70;80.70;;;;;;5011765;28;20064;-72
2021/07/29 02:00:05;;;;;;;15.15;4.00;;;15.60;80.80;;;;;;5029673;28;20077;-72
2021/07/29 02:02:30;;;;;;;13.80;3.80;;;15.60;80.90;;;;;;5000881;28;20402;-73
2021/07/29 02:04:56;;;;;;;13.48;3.97;;;15.60;81.00;;;;;;5005273;28;20042;-73
2021/07/29 02:07:22;;;;;;;16.38;3.63;;;15.60;81.10;;;;;;5004779;28;20397;-72
2021/07/29 02:09:47;;;;;;;13.25;4.25;;;15.50;81.40;;;;;;5028951;28;20041;-72
2021/07/29 02:12:13;;;;;;;13.63;4.10;;;15.50;81.50;;;;;;5021063;28;20454;-72
2021/07/29 02:14:39;;;;;;;16.95;4.50;;;15.50;81.30;;;;;;5024659;28;20390;-76
2021/07/29 02:17:04;;;;;;;15.50;4.10;;;15.50;81.50;;;;;;5025665;28;20103;-72
2021/07/29 02:19:32;;;;;;;13.40;3.63;;;15.50;81.60;;;;;;5031130;28;20500;-73
2021/07/29 02:21:58;;;;;;;14.30;4.28;;;15.50;81.60;;;;;;5028526;28;20038;-72
2021/07/29 02:24:24;;;;;;;16.73;3.78;;;15.50;81.50;;;;;;5024888;28;20055;-72
2021/07/29 02:26:49;;;;;;;19.58;4.03;;;15.50;81.50;;;;;;5025639;28;20049;-74
2021/07/29 02:29:15;;;;;;;17.08;3.90;;;15.50;81.50;;;;;;5015330;28;20061;-72
2021/07/29 02:31:41;;;;;;;14.68;3.55;;;15.50;81.40;;;;;;5019006;28;20034;-73
2021/07/29 02:34:06;;;;;;;13.15;4.10;;;15.50;81.30;;;;;;5029922;28;20380;-72
2021/07/29 02:36:32;;;;;;;11.63;3.40;;;15.50;81.30;;;;;;5028401;28;20057;-73
2021/07/29 02:38:58;;;;;;;14.27;3.70;;;15.50;81.40;;;;;;5024598;28;20049;-74
2021/07/29 02:41:24;;;;;;;15.80;3.92;;;15.40;81.70;;;;;;5022844;28;20136;-72
2021/07/29 02:43:50;;;;;;;20.60;3.53;;;15.40;81.70;;;;;;5027715;28;20034;-73
2021/07/29 02:46:15;;;;;;;17.65;4.63;;;15.50;81.60;;;;;;5023516;28;20037;-73
2021/07/29 02:48:41;;;;;;;15.88;3.55;;;15.50;81.50;;;;;;5020101;28;20129;-73
2021/07/29 02:51:07;;;;;;;12.68;3.47;;;15.40;81.70;;;;;;5014636;28;20033;-74
2021/07/29 02:53:33;;;;;;;16.15;3.40;;;15.40;81.80;;;;;;5017387;28;20054;-72
2021/07/29 02:55:59;;;;;;;16.50;3.83;;;15.40;81.90;;;;;;5021198;28;20041;-73
2021/07/29 02:58:25;;;;;;;11.07;3.67;;;15.40;82.10;;;;;;4999952;28;20049;-74
2021/07/29 03:00:54;;;;;;;14.75;3.45;;;15.30;82.10;;;;;;5005979;28;20037;-73
2021/07/29 03:03:20;;;;;;;13.07;3.05;;;15.30;82.20;;;;;;5000283;28;20930;-72
2021/07/29 03:05:46;;;;;;;14.98;3.58;;;15.20;82.30;;;;;;5018239;28;20022;-74
2021/07/29 03:08:12;;;;;;;12.35;3.83;;;15.30;82.20;;;;;;5001930;28;20039;-75
2021/07/29 03:10:37;;;;;;;16.33;4.28;;;15.30;82.30;;;;;;5001771;28;20512;-73
2021/07/29 03:13:04;;;;;;;17.33;4.28;;;15.20;82.30;;;;;;5001800;28;20049;-73
2021/07/29 03:15:30;;;;;;;15.10;3.40;;;15.20;82.30;;;;;;5003484;28;20547;-73
2021/07/29 03:17:57;;;;;;;15.10;3.78;;;15.30;82.30;;;;;;5019634;28;20049;-72
2021/07/29 03:20:23;;;;;;;12.90;3.65;;;15.20;82.40;;;;;;5015396;28;20026;-73
2021/07/29 03:22:48;;;;;;;16.08;3.70;;;15.20;82.40;;;;;;5011247;28;20046;-73
2021/07/29 03:25:14;;;;;;;19.10;3.92;;;15.10;82.40;;;;;;5007117;28;20045;-72
2021/07/29 03:27:40;;;;;;;17.27;4.15;;;15.10;82.50;;;;;;5006090;28;20469;-76
2021/07/29 03:30:06;;;;;;;15.80;4.20;;;15.10;82.80;;;;;;4996696;28;20030;-73
2021/07/29 03:32:32;;;;;;;17.13;4.07;;;15.10;82.70;;;;;;5015967;28;20034;-73
2021/07/29 03:34:57;;;;;;;18.33;3.95;;;15.10;82.60;;;;;;5014689;28;20132;-73
2021/07/29 03:37:23;;;;;;;14.38;3.58;;;15.10;82.50;;;;;;4999598;28;20031;-73
2021/07/29 03:39:49;;;;;;;15.32;4.15;;;15.10;82.40;;;;;;5010611;28;20038;-72
2021/07/29 03:42:14;;;;;;;13.60;3.47;;;15.10;82.30;;;;;;4996514;28;20117;-73
2021/07/29 03:44:40;;;;;;;15.20;4.28;;;15.10;82.30;;;;;;5005200;28;20531;-72
2021/07/29 03:47:06;;;;;;;15.07;3.92;;;15.10;82.40;;;;;;5012893;28;20087;-72
2021/07/29 03:49:35;;;;;;;14.32;4.30;;;15.10;82.50;;;;;;5011071;28;20038;-76
2021/07/29 03:52:01;;;;;;;14.65;3.65;;;15.10;82.50;;;;;;5013301;28;20098;-73
2021/07/29 03:54:27;;;;;;;13.82;3.42;;;15.10;82.60;;;;;;5009538;28;20467;-72
2021/07/29 03:56:53;;;;;;;15.77;4.70;;;15.10;82.50;;;;;;5002329;28;20077;-76
2021/07/29 03:59:18;;;;;;;18.38;4.68;;;15.10;82.60;;;;;;5010960;28;20384;-73
2021/07/29 04:01:44;;;;;;;22.63;3.92;;;15.10;82.50;;;;;;4999331;28;20035;-73
2021/07/29 04:04:10;;;;;;;16.85;4.15;;;15.00;82.50;;;;;;5019946;28;20033;-73
2021/07/29 04:06:35;;;;;;;16.33;4.10;;;15.00;82.50;;;;;;5005566;28;20049;-77
2021/07/29 04:09:01;;;;;;;20.48;5.20;;;15.00;82.60;;;;;;5004532;28;20538;-76
2021/07/29 04:11:27;;;;;;;13.60;4.63;;;14.90;82.80;;;;;;5003694;28;20469;-73
2021/07/29 04:13:52;;;;;;;16.63;3.78;;;15.00;83.00;;;;;;5006584;28;20034;-72
2021/07/29 04:16:18;;;;;;;17.27;3.95;;;14.90;83.00;;;;;;5008599;28;20030;-73
2021/07/29 04:18:44;;;;;;;14.23;3.95;;;14.90;83.20;;;;;;5014047;28;20041;-72
2021/07/29 04:21:15;;;;;;;12.85;4.22;;;14.90;83.30;;;;;;5016473;28;20048;-77
2021/07/29 04:23:41;;;;;;;16.70;3.95;;;14.90;83.20;;;;;;5003604;28;20034;-73
2021/07/29 04:26:07;;;;;;;19.25;5.18;;;14.90;83.50;;;;;;4991539;28;20042;-72
2021/07/29 04:28:33;;;;;;;14.50;3.70;;;14.90;83.30;;;;;;5003542;28;20068;-73
2021/07/29 04:30:58;;;;;;;14.65;4.05;;;14.90;83.40;;;;;;5002165;28;20556;-75
2021/07/29 04:33:24;;;;;;;17.73;4.55;;;14.90;83.40;;;;;;5004578;28;20038;-72
2021/07/29 04:35:50;;;;;;;19.25;4.03;;;15.00;83.20;;;;;;4998461;28;20045;-74
2021/07/29 04:38:15;;;;;;;22.10;4.28;;;15.00;83.30;;;;;;4995612;28;20042;-72
2021/07/29 04:40:41;;;;;;;15.80;4.05;;;15.00;83.30;;;;;;5004711;28;20037;-72
2021/07/29 04:43:06;;;;;;;20.13;4.63;;;15.00;83.10;;;;;;5001437;28;20366;-73
2021/07/29 04:45:32;;;;;;;14.98;4.13;;;15.10;83.00;;;;;;5005097;28;20059;-73
2021/07/29 04:47:58;;;;;;;17.92;4.00;;;15.10;83.00;;;;;;5012573;28;20098;-73
2021/07/29 04:50:24;;;;;;;13.98;3.90;;;15.10;83.00;;;;;;5027663;28;20480;-75
2021/07/29 04:52:50;;;;;;;19.05;4.82;;;15.10;83.00;;;;;;5024808;28;20309;-72
2021/07/29 04:55:16;;;;;;;12.07;2.90;;;15.10;83.10;;;;;;5028630;28;20056;-72
2021/07/29 04:57:42;;;;;;;12.38;3.80;;;15.10;83.20;;;;;;5028135;28;20465;-72
2021/07/29 05:00:08;;;;;;;14.20;3.92;;;15.20;83.00;;;;;;5023894;28;20037;-73
2021/07/29 05:02:34;;;;;;;15.15;3.92;;;15.30;82.70;;;;;;5029900;28;20475;-73
2021/07/29 05:05:00;;;;;;;15.88;4.65;;;15.30;82.60;;;;;;5024187;28;20034;-74
2021/07/29 05:07:25;;;;;;;17.80;4.15;;;15.30;82.60;;;;;;5007264;28;20405;-73
2021/07/29 05:09:51;;;;;;;15.55;3.70;;;15.40;82.40;;;;;;5009328;28;20062;-73
2021/07/29 05:12:17;;;;;;;15.57;3.65;;;15.50;82.30;;;;;;5001079;28;20038;-74
2021/07/29 05:14:42;;;;;;;12.60;3.85;;;15.50;81.90;;;;;;4996823;28;20034;-75
2021/07/29 05:17:08;;;;;;;18.55;4.20;;;15.60;81.90;;;;;;5014902;28;20045;-78
2021/07/29 05:19:34;;;;;;;12.95;3.88;;;15.60;81.60;;;;;;5015502;28;20029;-73
2021/07/29 05:21:59;;;;;;;14.32;3.80;;;15.60;81.50;;;;;;5010287;28;20048;-71
2021/07/29 05:24:25;;;;;;;14.68;4.22;;;15.70;81.30;;;;;;5023883;28;20126;-72
2021/07/29 05:26:51;;;;;;;17.73;4.43;;;16.00;80.90;;;;;;5026545;28;20124;-72
2021/07/29 05:29:16;;;;;;;20.27;4.30;;;16.80;78.40;;;;;;5023795;28;20129;-74
2021/07/29 05:31:42;;;;;;;14.20;3.40;;;18.00;74.70;;;;;;5031892;28;20395;-71
2021/07/29 05:34:09;;;;;;;13.30;3.65;;;18.80;72.20;;;;;;5029380;28;20037;-72
2021/07/29 05:36:36;;;;;;;13.70;3.13;;;19.60;67.70;;;;;;5025305;28;20040;-72
2021/07/29 05:39:01;;;;;;;12.90;3.38;;;19.50;67.20;;;;;;5022498;28;20108;-72
2021/07/29 05:41:27;;;;;;;14.85;3.33;;;19.50;67.30;;;;;;5021964;28;20062;-75
2021/07/29 05:43:53;;;;;;;12.52;3.15;;;20.10;65.90;;;;;;5023473;28;20040;-73
2021/07/29 05:46:18;;;;;;;17.67;3.53;;;19.80;66.10;;;;;;5024500;28;20480;-72
2021/07/29 05:48:44;;;;;;;13.43;3.30;;;19.40;67.00;;;;;;5020399;28;20038;-71
2021/07/29 05:51:09;;;;;;;13.55;3.92;;;18.80;68.90;;;;;;5025706;28;20036;-71
2021/07/29 05:53:35;;;;;;;16.65;3.75;;;18.60;70.30;;;;;;5023423;28;20382;-77
2021/07/29 05:56:01;;;;;;;19.15;3.75;;;18.70;70.00;;;;;;5027089;28;20034;-71
2021/07/29 05:58:27;;;;;;;17.50;3.83;;;19.60;67.30;;;;;;5021360;28;20073;-71
2021/07/29 06:00:53;;;;;;;12.07;3.58;;;20.20;65.20;;;;;;5023763;28;20500;-73
2021/07/29 06:03:19;;;;;;;14.95;3.40;;;20.40;64.80;;;;;;5021222;28;20030;-73
2021/07/29 06:05:45;;;;;;;16.30;4.03;;;20.40;64.00;;;;;;5027624;28;20112;-73
2021/07/29 06:08:11;;;;;;;11.60;3.65;;;19.80;65.60;;;;;;5017538;28;20053;-73
2021/07/29 06:10:36;;;;;;;20.20;4.32;;;19.10;67.80;;;;;;5021286;28;20076;-73
2021/07/29 06:13:02;;;;;;;15.45;3.92;;;18.70;69.60;;;;;;5030981;28;20472;-73
2021/07/29 06:15:28;;;;;;;13.70;4.10;;;18.30;71.10;;;;;;5028635;28;20038;-72
2021/07/29 06:17:59;;;;;;;14.52;3.85;;;18.10;72.00;;;;;;5021487;28;20476;-71
2021/07/29 06:20:25;;;;;;;19.42;4.25;;;18.00;72.10;;;;;;5022843;28;20917;-73
2021/07/29 06:22:51;;;;;;;18.02;4.80;;;17.90;73.00;;;;;;5018524;28;20052;-72
2021/07/29 06:25:18;;;;;;;15.20;4.35;;;17.80;73.30;;;;;;5022432;28;20046;-72
2021/07/29 06:27:46;;;;;;;15.70;4.07;;;17.80;73.40;;;;;;5021495;28;20058;-72
2021/07/29 06:30:12;;;;;;;14.25;3.67;;;17.80;73.20;;;;;;4993672;28;20037;-73
2021/07/29 06:32:38;;;;;;;14.57;4.18;;;18.00;72.90;;;;;;5006524;28;20050;-72
2021/07/29 06:35:04;;;;;;;15.15;4.07;;;18.10;72.60;;;;;;4995860;28;20420;-72
2021/07/29 06:37:30;;;;;;;14.02;4.18;;;18.30;72.20;;;;;;4997261;28;20030;-72
2021/07/29 06:39:55;;;;;;;18.90;4.30;;;18.60;71.10;;;;;;4997379;28;20038;-74
2021/07/29 06:42:21;;;;;;;21.00;4.95;;;18.80;70.60;;;;;;4994993;28;20064;-72
2021/07/29 06:44:47;;;;;;;19.55;5.07;;;18.90;69.30;;;;;;5008451;28;20386;-73
2021/07/29 06:47:14;;;;;;;16.67;5.07;;;18.80;69.30;;;;;;5025034;28;20056;-71
2021/07/29 06:49:39;;;;;;;18.23;5.32;;;18.40;69.70;;;;;;5021367;28;20465;-73
2021/07/29 06:52:05;;;;;;;17.65;4.40;;;18.60;70.60;;;;;;5024653;28;20037;-73
2021/07/29 06:54:31;;;;;;;16.88;4.25;;;18.60;70.10;;;;;;5007679;28;20030;-72
2021/07/29 06:56:57;;;;;;;13.75;3.85;;;18.60;70.10;;;;;;5006212;28;20390;-73
2021/07/29 06:59:22;;;;;;;16.50;4.10;;;18.40;69.70;;;;;;5010171;28;20069;-72
2021/07/29 07:01:48;;;;;;;17.00;4.35;;;18.40;69.80;;;;;;5008402;28;20061;-72
2021/07/29 07:04:14;;;;;;;18.08;4.10;;;18.30;70.20;;;;;;4998674;28;20037;-73
2021/07/29 07:06:40;;;;;;;15.65;4.32;;;18.10;70.00;;;;;;5005084;28;20044;-72
2021/07/29 07:09:05;;;;;;;17.27;4.55;;;18.20;70.30;;;;;;5008958;28;20489;-72
2021/07/29 07:11:31;;;;;;;14.73;4.28;;;18.30;70.10;;;;;;5003753;28;20468;-72
2021/07/29 07:13:56;;;;;;;14.98;4.95;;;18.30;69.70;;;;;;5013491;28;20481;-72
2021/07/29 07:16:22;;;;;;;16.25;4.95;;;18.40;69.50;;;;;;5023301;28;20112;-73
2021/07/29 07:18:48;;;;;;;18.20;4.30;;;18.70;69.50;;;;;;5023205;28;20072;-73
2021/07/29 07:21:13;;;;;;;19.05;4.32;;;19.00;68.10;;;;;;5016854;28;20041;-80
2021/07/29 07:23:42;;;;;;;18.48;4.63;;;19.10;66.90;;;;;;5016634;28;20485;-74
2021/07/29 07:26:21;;;;;;;19.13;5.18;;;19.50;68.10;;;;;;5011735;28;20038;-73
2021/07/29 07:28:47;;;;;;;14.63;4.13;;;19.70;66.20;;;;;;5017460;28;20045;-72
2021/07/29 07:31:14;;;;;;;15.88;4.70;;;19.80;66.80;;;;;;5013168;28;20061;-72
2021/07/29 07:33:40;;;;;;;14.63;4.22;;;19.70;65.00;;;;;;5007296;28;20034;-72
2021/07/29 07:36:06;;;;;;;15.13;4.25;;;19.80;65.70;;;;;;5001680;28;20113;-75
2021/07/29 07:38:31;;;;;;;15.95;4.50;;;19.60;65.60;;;;;;5002319;28;20057;-76
2021/07/29 07:41:02;;;;;;;15.15;4.07;;;19.80;66.00;;;;;;5007336;28;20041;-72
2021/07/29 07:43:28;;;;;;;14.30;4.45;;;19.80;65.10;;;;;;5021930;28;20034;-72
2021/07/29 07:45:53;;;;;;;17.70;4.70;;;19.50;66.10;;;;;;5025012;28;20041;-74
2021/07/29 07:48:19;;;;;;;16.45;5.32;;;19.30;65.70;;;;;;5015757;28;20442;-77
2021/07/29 07:50:45;;;;;;;14.85;4.22;;;19.20;66.30;;;;;;5017322;28;20083;-81
2021/07/29 07:53:10;;;;;;;18.38;4.55;;;19.50;65.90;;;;;;5016072;28;20066;-74
2021/07/29 07:55:36;;;;;;;17.58;4.82;;;19.50;66.20;;;;;;5022036;28;20483;-74
2021/07/29 07:58:02;;;;;;;18.35;5.07;;;19.40;65.80;;;;;;5019570;28;20480;-73
2021/07/29 08:00:27;;;;;;;17.10;4.53;;;19.40;66.30;;;;;;5019757;28;20068;-72
2021/07/29 08:02:53;;;;;;;13.95;4.70;;;19.20;65.50;;;;;;5021565;28;20125;-76
2021/07/29 08:05:19;;;;;;;16.40;4.20;;;19.30;66.10;;;;;;5022416;28;20500;-75
2021/07/29 08:07:44;;;;;;;16.15;4.32;;;19.50;65.60;;;;;;5024060;28;20029;-73
2021/07/29 08:10:11;;;;;;;11.55;4.20;;;19.80;64.10;;;;;;5025546;28;20087;-76
2021/07/29 08:12:37;;;;;;;14.05;3.88;;;19.70;64.00;;;;;;5021315;28;20088;-72
2021/07/29 08:15:03;;;;;;;14.73;3.72;;;19.60;64.10;;;;;;5024406;28;20033;-69
2021/07/29 08:17:29;;;;;;;14.18;4.70;;;19.50;64.70;;;;;;5015356;28;20145;-74
2021/07/29 08:19:55;;;;;;;14.98;3.88;;;19.60;63.80;;;;;;5028802;28;20417;-70
2021/07/29 08:22:20;;;;;;;17.38;4.53;;;19.70;64.60;;;;;;5026164;28;20096;-69
2021/07/29 08:24:46;;;;;;;15.68;3.92;;;19.90;63.10;;;;;;5015112;28;20448;-71
2021/07/29 08:27:12;;;;;;;17.02;4.20;;;20.10;61.40;;;;;;5027250;28;20049;-73
2021/07/29 08:29:37;;;;;;;14.85;4.50;;;20.30;60.90;;;;;;5020586;28;20482;-70
2021/07/29 08:32:04;;;;;;;19.25;4.03;;;20.60;61.10;;;;;;5010941;28;20044;-71
2021/07/29 08:34:30;;;;;;;16.35;4.82;;;20.70;60.90;;;;;;5015216;28;20146;-71
2021/07/29 08:36:55;;;;;;;16.15;4.22;;;20.90;59.70;;;;;;5000963;28;20057;-71
2021/07/29 08:39:22;;;;;;;11.90;3.72;;;20.90;59.50;;;;;;5000356;28;20044;-70
2021/07/29 08:41:47;;;;;;;16.63;4.45;;;20.70;59.60;;;;;;5001470;28;20104;-70
2021/07/29 08:44:13;;;;;;;12.00;3.85;;;20.60;60.70;;;;;;5004118;28;20491;-72
2021/07/29 08:46:45;;;;;;;13.88;3.92;;;20.70;60.40;;;;;;5014699;28;20034;-72
2021/07/29 08:49:11;;;;;;;12.05;3.28;;;21.10;59.60;;;;;;5022044;28;20159;-69
2021/07/29 08:51:38;;;;;;;13.75;4.22;;;21.40;58.50;;;;;;5005920;28;20055;-70
2021/07/29 08:54:12;;;;;;;13.48;3.88;;;21.50;56.20;;;;;;5004223;28;20038;-69
2021/07/29 08:56:38;;;;;;;13.65;3.35;;;21.10;56.90;;;;;;5006555;28;20121;-69
2021/07/29 08:59:07;;;;;;;11.52;4.00;;;21.00;57.10;;;;;;5022027;28;20132;-69
2021/07/29 09:01:43;;;;;;;12.30;3.80;;;20.90;59.80;;;;;;5014147;28;20030;-70
2021/07/29 09:04:16;;;;;;;11.48;3.90;;;21.10;59.20;;;;;;5014060;28;20499;-69
2021/07/29 09:07:07;;;;;;;28.00;4.55;;;21.30;58.60;;;;;;5009776;28;20030;-70
2021/07/29 09:09:39;;;;;;;13.35;3.95;;;21.30;58.10;;;;;;5029907;28;20036;-70
2021/07/29 09:12:24;;;;;;;12.23;3.67;;;21.30;58.30;;;;;;5001923;28;20149;-69
2021/07/29 09:14:51;;;;;;;13.68;3.47;;;21.50;58.50;;;;;;5006388;28;20065;-69
2021/07/29 09:17:17;;;;;;;14.80;4.03;;;21.60;57.30;;;;;;5015730;28;20113;-69
2021/07/29 09:19:47;;;;;;;16.48;3.63;;;21.10;58.40;;;;;;5011197;28;20041;-69
2021/07/29 09:22:30;;;;;;;11.10;3.58;;;21.30;57.80;;;;;;5008921;28;20423;-70
2021/07/29 09:25:04;;;;;;;11.90;3.67;;;21.80;54.90;;;;;;5022370;28;20037;-70
2021/07/29 09:27:39;;;;;;;14.35;4.05;;;22.20;54.30;;;;;;5019217;28;20041;-71
2021/07/29 09:30:13;;;;;;;11.38;3.17;;;22.20;53.00;;;;;;5025180;28;20068;-72
2021/07/29 09:33:03;;;;;;;12.98;3.65;;;22.10;53.40;;;;;;5026009;28;20451;-70
2021/07/29 09:35:30;;;;;;;16.77;3.75;;;22.60;54.20;;;;;;5005604;28;20050;-70
2021/07/29 09:37:56;;;;;;;9.95;3.50;;;22.20;53.70;;;;;;5000802;28;20120;-70
2021/07/29 09:40:22;;;;;;;13.02;4.30;;;22.20;54.40;;;;;;5007506;28;20041;-74
2021/07/29 09:43:09;;;;;;;11.82;3.15;;;22.40;53.90;;;;;;5003113;28;20041;-71
2021/07/29 09:45:35;;;;;;;14.00;3.45;;;22.30;53.00;;;;;;5005245;28;20120;-69
2021/07/29 09:48:02;;;;;;;10.05;3.20;;;22.50;54.40;;;;;;5003413;28;20052;-71
2021/07/29 09:50:28;;;;;;;12.35;3.58;;;21.90;54.70;;;;;;4996619;28;20040;-72
2021/07/29 09:52:54;;;;;;;11.27;3.38;;;22.20;53.80;;;;;;5007907;28;20099;-71
2021/07/29 09:55:22;;;;;;;10.55;3.20;;;21.80;51.90;;;;;;4999921;28;20037;-71
2021/07/29 09:57:47;;;;;;;11.65;4.25;;;21.70;52.30;;;;;;4999219;28;20030;-75
2021/07/29 10:00:14;;;;;;;10.52;2.88;;;21.70;52.70;;;;;;5001433;28;20034;-73
2021/07/29 10:02:42;;;;;;;12.52;3.45;;;22.10;51.60;;;;;;4997571;28;20031;-73
2021/07/29 10:05:09;;;;;;;13.23;3.67;;;22.10;52.20;;;;;;4995883;28;20043;-70
2021/07/29 10:07:39;;;;;;;10.25;2.95;;;22.00;53.40;;;;;;4999138;28;20084;-70
2021/07/29 10:10:07;;;;;;;12.05;3.83;;;21.80;53.20;;;;;;5000270;28;20083;-71
2021/07/29 10:12:33;;;;;;;11.90;3.65;;;22.10;53.20;;;;;;4997591;28;20030;-74
2021/07/29 10:15:00;;;;;;;15.32;4.40;;;22.70;52.90;;;;;;4998678;28;20561;-69
2021/07/29 10:17:35;;;;;;;12.82;3.88;;;23.00;50.60;;;;;;4999753;28;20037;-75
2021/07/29 10:20:16;;;;;;;16.80;4.05;;;23.00;48.70;;;;;;5003604;28;20026;-75
2021/07/29 10:22:46;;;;;;;14.27;3.50;;;22.80;49.60;;;;;;5000279;28;20049;-68
2021/07/29 10:25:12;;;;;;;10.45;2.92;;;23.30;47.30;;;;;;5005614;28;20022;-70
2021/07/29 10:27:38;;;;;;;13.20;3.30;;;23.40;46.90;;;;;;5004004;28;20488;-69
2021/07/29 10:30:19;;;;;;;10.45;3.17;;;23.80;47.50;;;;;;5001427;28;20033;-71
2021/07/29 10:32:46;;;;;;;11.73;3.47;;;24.20;46.60;;;;;;4996733;28;20535;-70
2021/07/29 10:35:30;;;;;;;14.15;3.60;;;24.20;46.10;;;;;;4997411;28;20033;-71
2021/07/29 10:37:56;;;;;;;12.05;3.30;;;24.00;45.70;;;;;;5014595;28;20168;-71
2021/07/29 10:40:35;;;;;;;12.60;3.35;;;23.60;45.60;;;;;;4998746;28;20040;-70
2021/07/29 10:43:25;;;;;;;9.50;3.08;;;23.50;44.60;;;;;;5001431;28;20026;-70
2021/07/29 10:45:52;;;;;;;14.18;3.50;;;23.60;45.60;;;;;;5002695;28;20061;-70
2021/07/29 10:48:42;;;;;;;11.82;3.35;;;23.40;46.00;;;;;;5011915;28;20073;-69
2021/07/29 10:51:24;;;;;;;11.13;3.67;;;23.50;45.30;;;;;;4997965;28;20034;-69
2021/07/29 10:53:52;;;;;;;10.43;3.28;;;23.40;45.30;;;;;;4996050;28;20408;-70
2021/07/29 10:56:19;;;;;;;9.85;3.00;;;22.90;47.00;;;;;;4994666;28;20040;-69
2021/07/29 10:58:48;;;;;;;10.45;3.22;;;23.10;47.80;;;;;;5017907;28;20029;-70
2021/07/29 11:01:17;;;;;;;9.63;3.38;;;23.00;46.90;;;;;;5018623;28;20057;-70
2021/07/29 11:03:46;;;;;;;14.02;4.00;;;23.10;47.40;;;;;;5001704;28;20038;-70
2021/07/29 11:06:22;;;;;;;12.02;3.67;;;23.00;47.40;;;;;;4992111;28;20061;-70
2021/07/29 11:08:49;;;;;;;9.18;3.22;;;23.10;48.40;;;;;;4990996;28;20037;-74
2021/07/29 11:11:15;;;;;;;9.20;3.38;;;23.40;47.80;;;;;;4993912;28;20044;-71
2021/07/29 11:13:46;;;;;;;12.75;3.58;;;23.40;48.00;;;;;;5010311;28;20029;-74
2021/07/29 11:16:12;;;;;;;11.00;3.42;;;24.00;45.70;;;;;;4996855;28;20446;-71
2021/07/29 11:18:38;;;;;;;9.13;3.55;;;24.10;45.30;;;;;;4990464;28;20041;-72
2021/07/29 11:21:17;;;;;;;10.65;3.40;;;24.00;45.30;;;;;;4994008;28;20043;-72
2021/07/29 11:23:43;;;;;;;10.07;3.50;;;24.30;45.10;;;;;;5010232;28;20521;-73
2021/07/29 11:26:09;;;;;;;11.25;3.40;;;23.60;44.30;;;;;;5015940;28;20046;-70
2021/07/29 11:28:35;;;;;;;11.77;3.88;;;23.90;45.20;;;;;;4995389;28;20118;-71
2021/07/29 11:31:02;;;;;;;11.50;3.63;;;24.30;44.60;;;;;;4998037;28;20546;-71
2021/07/29 11:33:30;;;;;;;10.32;3.60;;;24.30;43.80;;;;;;4994347;28;20150;-72
2021/07/29 11:36:04;;;;;;;10.23;3.05;;;24.10;44.10;;;;;;4995380;28;20064;-71
2021/07/29 11:38:30;;;;;;;8.35;3.35;;;23.90;43.60;;;;;;4992068;28;20037;-70
2021/07/29 11:41:00;;;;;;;11.57;3.45;;;23.30;46.10;;;;;;4996248;28;21435;-70
2021/07/29 11:43:31;;;;;;;12.07;3.45;;;23.50;46.90;;;;;;5018800;28;20046;-74
2021/07/29 11:46:04;;;;;;;12.82;3.85;;;23.60;47.00;;;;;;5018797;28;20088;-70
2021/07/29 11:48:30;;;;;;;11.07;3.35;;;24.10;44.60;;;;;;5018288;28;20774;-70
2021/07/29 11:50:55;;;;;;;11.63;3.55;;;24.60;44.20;;;;;;5018528;28;20538;-74
2021/07/29 11:53:37;;;;;;;8.30;2.72;;;24.80;42.80;;;;;;5019295;28;20120;-73
2021/07/29 11:56:03;;;;;;;11.10;3.72;;;24.80;41.60;;;;;;5018376;28;20623;-75
2021/07/29 11:58:29;;;;;;;10.77;3.08;;;25.00;42.80;;;;;;5018634;28;20049;-73
2021/07/29 12:00:54;;;;;;;10.88;3.35;;;24.60;42.50;;;;;;5020045;28;20049;-73
2021/07/29 12:03:44;;;;;;;9.30;3.22;;;24.50;42.50;;;;;;5021003;28;22973;-70
2021/07/29 12:06:12;;;;;;;8.18;2.95;;;24.60;41.80;;;;;;5015496;28;20041;-75
2021/07/29 12:08:40;;;;;;;12.38;3.45;;;24.30;42.90;;;;;;5019194;28;20064;-70
2021/07/29 12:11:07;;;;;;;12.82;3.70;;;24.60;43.50;;;;;;5017736;28;20041;-70
2021/07/29 12:13:33;;;;;;;10.93;3.42;;;24.60;42.90;;;;;;5016053;28;20080;-71
2021/07/29 12:15:59;;;;;;;9.23;3.35;;;24.60;43.00;;;;;;5024565;28;20030;-70
2021/07/29 12:18:25;;;;;;;7.88;3.15;;;24.30;41.50;;;;;;5020793;28;20040;-70
2021/07/29 12:20:53;;;;;;;9.75;3.30;;;23.90;41.30;;;;;;5017572;28;20128;-70
2021/07/29 12:23:20;;;;;;;10.18;3.42;;;23.80;41.40;;;;;;5019710;28;20103;-75
2021/07/29 12:25:46;;;;;;;11.00;3.38;;;23.00;44.50;;;;;;5021936;28;20041;-71
2021/07/29 12:28:13;;;;;;;10.73;3.40;;;22.90;45.20;;;;;;5021236;28;20084;-70
2021/07/29 12:30:42;;;;;;;9.90;3.10;;;23.20;44.70;;;;;;5022695;28;20029;-74
2021/07/29 12:33:13;;;;;;;12.52;4.18;;;23.10;45.00;;;;;;5021387;28;20332;-68
2021/07/29 12:35:41;;;;;;;11.05;4.07;;;23.50;45.10;;;;;;5020963;28;20402;-71
2021/07/29 12:38:07;;;;;;;9.70;3.40;;;23.40;44.70;;;;;;5022834;28;20041;-73
2021/07/29 12:40:33;;;;;;;10.10;3.33;;;23.20;45.00;;;;;;5022237;28;20045;-69